Kezdőlap
METAR-TAF:

METAR-TAF

Repülőterek :

Stanton, Minnesota, Amerikai Egyesült Államok

földrajzi szélesség: 44-28-32N, földrajzi hosszúság: 093-00-59W, magasság: 280 m

Jelenlegi meteorológiai megfigyelések

A jelentés 29 perccel ezelõtt készült, 06:56 UTC
Kelet-délkeleti szél 7 kt
Hőmérséklet 20°C
Páratartalom 83%
Légköri nyomás 1011 hPa
Látótávolság: 16.1 km
Szórványos felhőzet 4500 lábon
Szakadozott felhőzet 6500 lábon
Borult 9500 lábon

METAR: KSYN 260656Z AUTO 12007KT 10SM SCT045 BKN065 OVC095 20/17 A2986 RMK AO2 T01950174

Idő: 02:25 (07:25 UTC)


TAF: hiányzik

Meteorológiai megfigyelések és előrejelzések több, mint 4000 repülőtéren (METAR és TAF jelentéseket).

A térképen piros és sárga pontok jelzik az elérhető meteorológiai állomásokat.

Mozgassa az egeret a pont fölött, hogy megjelenjen az állomás neve.

Azután kattintson az időjárási megfigyelések és előrejelzések megtekintéséhez.

A térkép megváltoztatása: kattintson a fekete keresztel jelölt zöld gombra ráközelítéshez, a vonallal jelölt zöld gombra távolításhoz, vagy a zöld nyilakra a szomszédos térképek eléréséhez.


METAR-TAF: